createdAt,value
2024-04-06T00:02:15.539Z,1.47
2024-04-06T00:12:21.703Z,1.49
2024-04-06T00:22:27.827Z,1.79
2024-04-06T00:32:34.009Z,1.49
2024-04-06T00:42:40.103Z,1.45
2024-04-06T00:52:46.250Z,1.33
2024-04-06T01:02:52.400Z,1.54
2024-04-06T01:12:58.536Z,1
2024-04-06T01:23:04.672Z,1.34
2024-04-06T01:33:10.803Z,1.07
2024-04-06T01:43:16.949Z,1.38
2024-04-06T01:53:23.124Z,1.38
2024-04-06T02:03:29.230Z,1.44
2024-04-06T02:13:35.393Z,0.82
2024-04-06T02:23:48.659Z,1.13
2024-04-06T02:33:54.788Z,1.33
2024-04-06T02:44:00.928Z,1.48
2024-04-06T02:54:07.062Z,1.03
2024-04-06T03:04:13.211Z,1.4
2024-04-06T03:14:19.355Z,0.86
2024-04-06T03:24:25.491Z,1.18
2024-04-06T03:34:31.628Z,1.07
2024-04-06T03:44:37.776Z,1.53
2024-04-06T03:54:43.895Z,1.06
2024-04-06T04:04:50.041Z,1.45
2024-04-06T04:14:56.175Z,1.05
2024-04-06T04:25:02.319Z,1.08
2024-04-06T04:35:08.466Z,1.08
2024-04-06T04:45:14.615Z,1.15
2024-04-06T04:55:21.901Z,1
2024-04-06T05:05:26.900Z,0.97
2024-04-06T05:15:33.027Z,1.06
2024-04-06T05:25:39.163Z,1.02
2024-04-06T05:35:45.286Z,1.36
2024-04-06T05:45:51.444Z,1.06
2024-04-06T05:55:57.576Z,1.34
2024-04-06T06:06:03.729Z,0.93
2024-04-06T06:16:09.857Z,0.98
2024-04-06T06:26:16.003Z,1.37
2024-04-06T06:46:28.278Z,1.65
2024-04-06T06:56:34.423Z,1.59
2024-04-06T07:16:46.688Z,4.34
2024-04-06T07:26:52.826Z,4.14
2024-04-06T07:36:58.971Z,2.83
2024-04-06T07:47:05.110Z,2.51
2024-04-06T07:57:11.274Z,2.03
2024-04-06T08:07:17.440Z,1.8
2024-04-06T08:17:23.529Z,2.04
2024-04-06T08:37:35.820Z,1.47
2024-04-06T08:47:41.945Z,1.65
2024-04-06T08:57:48.097Z,1.48
2024-04-06T09:07:54.227Z,1.57
2024-04-06T09:18:00.378Z,1.9
2024-04-06T09:28:06.515Z,1.25
2024-04-06T09:38:12.657Z,1.55
2024-04-06T09:48:18.807Z,1.57
2024-04-06T09:58:24.937Z,1.54
2024-04-06T10:08:31.072Z,1.44
2024-04-06T10:18:37.211Z,1.67
2024-04-06T10:28:43.354Z,1.72
2024-04-06T10:38:49.493Z,2.19
2024-04-06T10:48:55.627Z,2.4
2024-04-06T10:59:01.767Z,1.71
2024-04-06T11:09:07.910Z,1.86
2024-04-06T11:19:14.067Z,1.52
2024-04-06T11:29:20.180Z,1.88
2024-04-06T11:39:26.317Z,1.56
2024-04-06T11:49:32.465Z,1.52
2024-04-06T11:59:38.607Z,1.89
2024-04-06T12:09:44.761Z,1.51
2024-04-06T12:19:50.875Z,1.7
2024-04-06T12:29:57.018Z,1.58
2024-04-06T12:40:03.160Z,1.58
2024-04-06T12:50:09.322Z,1.38
2024-04-06T13:00:15.472Z,1.52
2024-04-06T13:10:21.601Z,1.74
2024-04-06T13:20:27.720Z,1.77
2024-04-06T13:30:33.869Z,1.84
2024-04-06T13:40:39.999Z,1.69
2024-04-06T13:50:46.179Z,1.55
2024-04-06T14:01:05.044Z,1.99
2024-04-06T14:11:11.190Z,1.37
2024-04-06T14:21:17.314Z,1.45
2024-04-06T14:31:30.605Z,1.34
2024-04-06T14:41:36.776Z,1.22
2024-04-06T14:51:42.894Z,1.37
2024-04-06T15:01:49.031Z,1.51
2024-04-06T15:12:02.389Z,1.24
2024-04-06T15:22:15.620Z,1.15
2024-04-06T15:32:21.750Z,1.31
2024-04-06T15:42:27.891Z,1.21
2024-04-06T15:52:34.017Z,1.14
2024-04-06T16:02:40.153Z,1.25
2024-04-06T16:12:46.303Z,1.42
2024-04-06T16:22:52.430Z,1.62
2024-04-06T16:32:58.574Z,1.72
2024-04-06T16:43:11.886Z,1.59
2024-04-06T16:53:18.019Z,3.26
2024-04-06T17:03:24.145Z,5.11
2024-04-06T17:13:30.304Z,5.11
2024-04-06T17:23:36.413Z,4.15
2024-04-06T17:33:42.589Z,3.91
2024-04-06T17:43:48.696Z,2.77
2024-04-06T17:53:54.842Z,2.67
2024-04-06T18:04:08.136Z,2.25
2024-04-06T18:14:14.283Z,2.03
2024-04-06T18:24:20.425Z,1.77
2024-04-06T18:34:26.688Z,2.08
2024-04-06T18:44:32.724Z,2.44
2024-04-06T18:54:38.824Z,2.17
2024-04-06T19:04:44.966Z,2.91
2024-04-06T19:24:57.251Z,2.33
2024-04-06T19:35:03.393Z,2.25
2024-04-06T19:45:09.545Z,2.34
2024-04-06T19:55:15.693Z,2.28
2024-04-06T20:05:21.809Z,1.95
2024-04-06T20:15:27.949Z,2.68
2024-04-06T20:25:34.107Z,2.36
2024-04-06T20:35:40.233Z,2.14
2024-04-06T20:45:46.367Z,2.05
2024-04-06T20:55:52.498Z,1.76
2024-04-06T21:05:58.640Z,1.97
2024-04-06T21:16:04.792Z,2.01
2024-04-06T21:26:29.288Z,1.67
2024-04-06T21:36:35.421Z,2
2024-04-06T21:46:41.574Z,2.41
2024-04-06T21:56:47.699Z,1.97
2024-04-06T22:07:01.001Z,2.28
2024-04-06T22:17:07.133Z,1.79
2024-04-06T22:27:20.423Z,2.29
2024-04-06T22:37:26.560Z,2.12
2024-04-06T22:47:32.760Z,1.89
2024-04-06T22:57:38.964Z,1.62
2024-04-06T23:07:44.978Z,2.15
2024-04-06T23:17:51.127Z,2.04
2024-04-06T23:27:57.254Z,2.22
2024-04-06T23:38:03.402Z,2.14
2024-04-06T23:48:09.534Z,2.17
2024-04-06T23:58:15.672Z,1.73
